Time;durP1;ratioP1;P1;durP2;ratioP2;P2;SDS_P1;SDS_P2;PMS_P1;PMS_P2;Temp;Humidity;BMP_temperature;BMP_pressure;BME280_temperature;BME280_humidity;BME280_pressure;Samples;Min_cycle;Max_cycle;Signal;HPM_P1;HPM_P2
2021/01/04 00:00:38;;;;;;;6.13;4.40;;;5.00;98.30;;;;;;5139688;23;20447;-80
2021/01/04 00:02:59;;;;;;;7.07;4.90;;;5.00;98.30;;;;;;5126352;23;20434;-82
2021/01/04 00:05:16;;;;;;;8.03;4.30;;;5.00;98.30;;;;;;5115964;23;20459;-81
2021/01/04 00:07:38;;;;;;;9.90;4.27;;;5.00;98.30;;;;;;5124210;23;20736;-81
2021/01/04 00:09:51;;;;;;;9.20;5.03;;;5.10;98.30;;;;;;5115834;23;20463;-82
2021/01/04 00:12:01;;;;;;;5.80;4.00;;;5.00;98.30;;;;;;5123151;23;20419;-81
2021/01/04 00:14:15;;;;;;;6.37;3.90;;;5.00;98.30;;;;;;5114870;23;20464;-82
2021/01/04 00:16:26;;;;;;;7.53;4.17;;;5.10;98.30;;;;;;5123931;23;20441;-78
2021/01/04 00:18:36;;;;;;;7.57;4.70;;;5.10;98.30;;;;;;5124555;23;20431;-82
2021/01/04 00:20:44;;;;;;;7.60;4.30;;;5.10;98.30;;;;;;5115180;23;20464;-82
2021/01/04 00:22:55;;;;;;;5.30;3.73;;;5.10;98.30;;;;;;5114874;23;20463;-82
2021/01/04 00:25:08;;;;;;;10.47;4.40;;;5.10;98.30;;;;;;5116598;23;20460;-82
2021/01/04 00:27:16;;;;;;;7.03;3.60;;;5.20;98.30;;;;;;5125762;23;20453;-82
2021/01/04 00:29:21;;;;;;;6.70;4.10;;;5.20;98.30;;;;;;5125692;23;20526;-82
2021/01/04 00:31:26;;;;;;;7.17;4.03;;;5.20;98.30;;;;;;5125826;23;20473;-81
2021/01/04 00:33:33;;;;;;;5.20;3.87;;;5.20;98.30;;;;;;5127391;23;20444;-82
2021/01/04 00:35:35;;;;;;;6.20;3.97;;;5.10;98.30;;;;;;5127089;23;20498;-81
2021/01/04 00:38:08;;;;;;;7.57;3.90;;;5.20;98.30;;;;;;5115821;23;20496;-82
2021/01/04 06:46:23;;;;;;;4.65;3.88;;;3.30;98.30;;;;;;5090083;22;20205;-79
2021/01/04 06:48:33;;;;;;;5.60;4.95;;;3.20;98.30;;;;;;5151786;23;20239;-81
2021/01/04 06:50:43;;;;;;;7.30;3.88;;;3.30;98.30;;;;;;5143638;23;20214;-81
2021/01/04 06:53:22;;;;;;;5.90;4.10;;;3.30;98.30;;;;;;5152306;23;20205;-81
2021/01/04 06:56:01;;;;;;;4.90;3.70;;;3.30;98.30;;;;;;5152813;23;20755;-81
2021/01/04 06:58:19;;;;;;;5.80;3.75;;;3.30;98.30;;;;;;5127891;23;20199;-81
2021/01/04 07:00:33;;;;;;;6.75;4.05;;;3.20;98.30;;;;;;5119599;23;20206;-82
2021/01/04 07:03:16;;;;;;;5.38;3.65;;;3.20;98.30;;;;;;5119471;23;20206;-82
2021/01/04 07:05:41;;;;;;;5.35;3.58;;;3.20;98.30;;;;;;5104824;23;20223;-81
2021/01/04 07:08:11;;;;;;;4.43;3.75;;;3.30;98.30;;;;;;5124247;23;20282;-81
2021/01/04 07:10:28;;;;;;;5.97;4.00;;;3.30;98.30;;;;;;5128216;23;20221;-81
2021/01/04 07:12:48;;;;;;;5.50;3.63;;;3.30;98.30;;;;;;5119195;23;20206;-81
2021/01/04 07:15:19;;;;;;;7.07;3.85;;;3.30;98.30;;;;;;5118385;23;20246;-81
2021/01/04 07:17:32;;;;;;;9.77;5.57;;;3.30;98.30;;;;;;5126561;23;20198;-80
2021/01/04 07:20:05;;;;;;;10.95;6.78;;;3.30;98.30;;;;;;5118249;23;20211;-81
2021/01/04 07:22:16;;;;;;;5.75;4.97;;;3.30;98.30;;;;;;5115578;23;20600;-81
2021/01/04 07:24:39;;;;;;;4.38;3.60;;;3.30;98.30;;;;;;5118732;23;20202;-81
2021/01/04 07:27:09;;;;;;;7.30;4.65;;;3.30;98.30;;;;;;5127834;23;20696;-83
2021/01/04 07:29:33;;;;;;;3.92;3.50;;;3.20;98.30;;;;;;5127259;23;20213;-82
2021/01/04 07:31:38;;;;;;;4.15;3.60;;;3.20;98.30;;;;;;5127701;23;20199;-82
2021/01/04 07:33:46;;;;;;;4.25;3.40;;;3.20;98.30;;;;;;5127468;23;20202;-81
2021/01/04 07:35:56;;;;;;;6.72;3.40;;;3.20;98.30;;;;;;5118769;23;20206;-82
2021/01/04 07:38:19;;;;;;;6.30;4.93;;;3.20;98.30;;;;;;5124010;23;20203;-84
2021/01/04 07:40:40;;;;;;;8.20;4.70;;;3.30;98.30;;;;;;5116604;23;20209;-84
2021/01/04 07:43:13;;;;;;;10.20;5.45;;;3.30;98.30;;;;;;5116119;23;20210;-84
2021/01/04 07:45:28;;;;;;;4.32;3.72;;;3.40;98.30;;;;;;5096905;23;20238;-83
2021/01/04 07:48:06;;;;;;;4.32;3.80;;;3.40;98.30;;;;;;5116392;23;20224;-83
2021/01/04 07:50:44;;;;;;;5.07;2.97;;;3.30;98.30;;;;;;5116447;23;20241;-84
2021/01/04 07:53:22;;;;;;;4.70;3.35;;;3.30;98.30;;;;;;5124073;23;20206;-82
2021/01/04 07:55:54;;;;;;;4.78;3.50;;;3.30;98.30;;;;;;5123990;23;20673;-84
2021/01/04 07:58:16;;;;;;;4.85;3.95;;;3.20;98.30;;;;;;5124149;23;20237;-84
2021/01/04 08:00:44;;;;;;;3.92;3.53;;;3.20;98.30;;;;;;5115661;23;20214;-85
2021/01/04 08:03:43;;;;;;;5.28;3.60;;;3.10;98.30;;;;;;5123679;23;20670;-84
2021/01/04 08:06:24;;;;;;;6.30;4.10;;;3.10;98.30;;;;;;5113845;23;20285;-84
2021/01/04 08:08:54;;;;;;;4.90;4.15;;;3.10;98.30;;;;;;5114029;23;20213;-83
2021/01/04 08:11:26;;;;;;;4.82;4.15;;;3.10;98.30;;;;;;5114382;23;20293;-84
2021/01/04 08:14:13;;;;;;;5.57;3.67;;;3.30;98.30;;;;;;5117668;23;20214;-85
2021/01/04 08:16:21;;;;;;;5.35;4.18;;;3.30;98.30;;;;;;5062041;23;20867;-84
2021/01/04 08:18:25;;;;;;;5.55;3.90;;;3.20;98.30;;;;;;5124887;23;20269;-85
2021/01/04 08:20:31;;;;;;;4.63;3.80;;;3.20;98.30;;;;;;5118356;23;20277;-85
2021/01/04 08:23:21;;;;;;;5.20;3.50;;;3.20;98.30;;;;;;5125939;23;20665;-84
2021/01/04 08:25:36;;;;;;;8.75;5.80;;;3.20;98.30;;;;;;5078215;23;20454;-84
2021/01/04 08:27:55;;;;;;;13.48;7.68;;;3.20;98.30;;;;;;5114539;23;20245;-84
2021/01/04 08:30:07;;;;;;;4.78;4.30;;;3.20;98.30;;;;;;5116202;23;20584;-85
2021/01/04 08:32:20;;;;;;;5.32;3.80;;;3.20;98.30;;;;;;5124084;23;20213;-85
2021/01/04 08:34:23;;;;;;;3.80;3.40;;;3.20;98.30;;;;;;5124984;23;20233;-85
2021/01/04 08:36:29;;;;;;;5.15;3.50;;;3.10;98.30;;;;;;5115911;23;20269;-84
2021/01/04 08:38:36;;;;;;;5.20;4.70;;;3.10;98.30;;;;;;5123790;23;20225;-82
2021/01/04 08:40:52;;;;;;;4.50;3.70;;;3.10;98.30;;;;;;5115822;23;20213;-83
2021/01/04 08:43:07;;;;;;;3.85;3.50;;;3.10;98.30;;;;;;5124019;23;20233;-83
2021/01/04 08:45:13;;;;;;;6.15;4.30;;;3.10;98.30;;;;;;5124734;23;20271;-84
2021/01/04 08:47:18;;;;;;;4.80;3.78;;;3.20;98.30;;;;;;5124058;23;20264;-84
2021/01/04 08:49:24;;;;;;;6.18;4.82;;;3.20;98.30;;;;;;5123666;23;20206;-85
2021/01/04 08:51:31;;;;;;;6.13;4.28;;;3.20;98.30;;;;;;5116758;23;20215;-85
2021/01/04 08:53:33;;;;;;;4.80;4.03;;;3.20;98.30;;;;;;5115899;23;20213;-85
2021/01/04 08:55:36;;;;;;;7.07;4.03;;;3.20;98.30;;;;;;5124004;23;20213;-84
2021/01/04 08:57:42;;;;;;;4.65;3.40;;;3.20;98.30;;;;;;5123612;23;20226;-84
2021/01/04 09:00:04;;;;;;;4.50;3.72;;;3.20;98.30;;;;;;5115784;23;20684;-84
2021/01/04 09:02:24;;;;;;;51.85;25.17;;;3.20;98.30;;;;;;5115788;23;20237;-85
2021/01/04 09:04:30;;;;;;;21.00;11.70;;;3.30;98.30;;;;;;5115652;23;20249;-85
2021/01/04 09:06:34;;;;;;;45.72;24.83;;;3.40;98.30;;;;;;5115854;23;20236;-84
2021/01/04 09:08:36;;;;;;;5.10;4.20;;;3.50;98.30;;;;;;5115304;23;20202;-84
2021/01/04 09:10:43;;;;;;;5.55;4.30;;;3.40;98.30;;;;;;5123538;23;20452;-85
2021/01/04 09:12:52;;;;;;;4.13;3.65;;;3.40;98.30;;;;;;5123935;23;20260;-83
2021/01/04 09:14:58;;;;;;;4.20;3.65;;;3.40;98.30;;;;;;5124642;23;20206;-85
2021/01/04 09:17:12;;;;;;;5.50;3.40;;;3.30;98.30;;;;;;5123066;23;20210;-84
2021/01/04 09:19:24;;;;;;;4.70;3.55;;;3.30;98.30;;;;;;5115300;23;20210;-84
2021/01/04 09:21:33;;;;;;;34.35;17.98;;;3.20;98.30;;;;;;5115834;23;20232;-84
2021/01/04 09:23:40;;;;;;;57.67;30.52;;;3.40;98.30;;;;;;5115534;23;20214;-84
2021/01/04 09:25:47;;;;;;;6.43;4.63;;;3.50;98.30;;;;;;5115878;23;20209;-84
2021/01/04 09:27:53;;;;;;;4.32;3.92;;;3.50;98.30;;;;;;5115639;23;20528;-85
2021/01/04 09:29:58;;;;;;;4.97;3.70;;;3.50;98.30;;;;;;5123611;23;20218;-83
2021/01/04 09:32:06;;;;;;;4.55;3.30;;;3.50;98.30;;;;;;5115749;23;20206;-85
2021/01/04 09:34:13;;;;;;;5.18;3.38;;;3.40;98.30;;;;;;5115506;23;20210;-84
2021/01/04 09:36:19;;;;;;;3.53;3.22;;;3.30;98.30;;;;;;5124038;23;20202;-83
2021/01/04 09:38:25;;;;;;;4.20;3.30;;;3.40;98.30;;;;;;5115876;23;20294;-84
2021/01/04 09:40:29;;;;;;;5.25;4.00;;;3.30;98.30;;;;;;5117663;23;20858;-84
2021/01/04 09:42:31;;;;;;;4.88;3.15;;;3.40;98.30;;;;;;5117111;23;20218;-85
2021/01/04 09:44:35;;;;;;;3.70;3.20;;;3.30;98.30;;;;;;5117217;23;20293;-84
2021/01/04 09:46:45;;;;;;;3.83;3.53;;;3.30;98.30;;;;;;5125164;23;20210;-85
2021/01/04 09:48:55;;;;;;;3.95;3.55;;;3.30;98.30;;;;;;5117076;23;20532;-85
2021/01/04 09:51:01;;;;;;;4.68;3.50;;;3.30;98.30;;;;;;5117058;23;20213;-85
2021/01/04 09:53:19;;;;;;;6.22;3.40;;;3.30;98.30;;;;;;5116280;23;20209;-84
2021/01/04 09:55:29;;;;;;;4.35;3.38;;;3.30;98.30;;;;;;5116652;23;20246;-84
2021/01/04 09:57:34;;;;;;;4.57;3.30;;;3.30;98.30;;;;;;5124578;23;20237;-84
2021/01/04 09:59:47;;;;;;;5.10;3.17;;;3.30;98.30;;;;;;5124629;23;20249;-84
2021/01/04 10:01:52;;;;;;;4.00;3.38;;;3.30;98.30;;;;;;5116811;23;20208;-84
2021/01/04 10:03:56;;;;;;;3.85;3.42;;;3.30;98.30;;;;;;5124979;23;20199;-84
2021/01/04 10:05:58;;;;;;;5.28;3.47;;;3.30;98.30;;;;;;5124900;23;20281;-84
2021/01/04 10:08:05;;;;;;;4.97;3.47;;;3.30;98.30;;;;;;5116641;23;20217;-84
2021/01/04 10:10:13;;;;;;;3.67;3.33;;;3.30;98.30;;;;;;5116692;23;20237;-85
2021/01/04 10:12:18;;;;;;;6.93;4.28;;;3.30;98.30;;;;;;5124749;23;20237;-85
2021/01/04 10:14:33;;;;;;;8.23;6.15;;;3.40;98.30;;;;;;5124898;23;20210;-83
2021/01/04 10:16:40;;;;;;;11.13;7.93;;;3.40;98.30;;;;;;5124184;23;20213;-83
2021/01/04 10:18:48;;;;;;;12.57;7.63;;;3.40;98.30;;;;;;5116441;23;20202;-84
2021/01/04 10:20:56;;;;;;;5.40;4.05;;;3.50;98.30;;;;;;5116743;23;20211;-84
2021/01/04 10:23:00;;;;;;;3.33;3.03;;;3.50;98.30;;;;;;5116181;23;20289;-85
2021/01/04 10:25:13;;;;;;;4.00;3.10;;;3.50;98.30;;;;;;5116899;23;20202;-85
2021/01/04 10:27:18;;;;;;;4.13;3.05;;;3.50;98.30;;;;;;5116747;23;20242;-84
2021/01/04 10:29:41;;;;;;;4.78;3.35;;;3.50;98.30;;;;;;5124268;23;20561;-84
2021/01/04 10:31:44;;;;;;;3.83;3.25;;;3.40;98.30;;;;;;5116641;23;20205;-85
2021/01/04 10:33:46;;;;;;;3.40;3.00;;;3.40;98.30;;;;;;5116304;23;20286;-84
2021/01/04 10:36:00;;;;;;;3.50;3.20;;;3.40;98.30;;;;;;5116999;23;20287;-84
2021/01/04 10:38:07;;;;;;;3.75;3.40;;;3.40;98.30;;;;;;5116437;23;20213;-85
2021/01/04 10:40:12;;;;;;;5.22;3.40;;;3.40;98.30;;;;;;5125266;23;20202;-84
2021/01/04 10:42:21;;;;;;;3.92;3.38;;;3.40;98.30;;;;;;5116696;23;20673;-85
2021/01/04 10:44:25;;;;;;;4.72;3.50;;;3.40;98.30;;;;;;5116592;23;20226;-84
2021/01/04 10:46:36;;;;;;;4.25;3.30;;;3.40;98.30;;;;;;5124626;23;20211;-85
2021/01/04 10:48:39;;;;;;;4.40;3.60;;;3.40;98.30;;;;;;5124528;23;20256;-85
2021/01/04 10:50:43;;;;;;;7.13;4.60;;;3.40;98.30;;;;;;5124058;23;20199;-83
2021/01/04 10:52:57;;;;;;;4.50;3.55;;;3.40;98.30;;;;;;5125041;23;20202;-83
2021/01/04 10:54:59;;;;;;;3.92;3.53;;;3.40;98.30;;;;;;5135547;23;20211;-82
2021/01/04 10:57:18;;;;;;;4.32;3.85;;;3.40;98.30;;;;;;5132725;23;20210;-81
2021/01/04 10:59:28;;;;;;;4.10;3.70;;;3.40;98.30;;;;;;5133058;23;20222;-81
2021/01/04 11:01:33;;;;;;;4.80;3.75;;;3.40;98.30;;;;;;5129772;23;20724;-83
2021/01/04 11:03:35;;;;;;;4.20;3.80;;;3.40;98.30;;;;;;5116680;23;20210;-82
2021/01/04 11:05:40;;;;;;;4.00;3.20;;;3.40;98.30;;;;;;5125012;23;20277;-83
2021/01/04 11:07:43;;;;;;;5.25;3.72;;;3.40;98.30;;;;;;5124890;23;20202;-83
2021/01/04 11:09:48;;;;;;;4.10;3.58;;;3.40;98.30;;;;;;5116221;23;20202;-83
2021/01/04 11:12:03;;;;;;;4.70;3.90;;;3.40;98.30;;;;;;5116300;23;20219;-83
2021/01/04 11:14:12;;;;;;;4.32;3.50;;;3.40;98.30;;;;;;5116521;23;20310;-83
2021/01/04 11:16:16;;;;;;;7.60;4.85;;;3.40;98.30;;;;;;5124599;23;20503;-83
2021/01/04 11:18:17;;;;;;;58.08;30.20;;;3.40;98.30;;;;;;5124020;23;20199;-83
2021/01/04 11:20:20;;;;;;;7.18;4.95;;;3.40;98.30;;;;;;5124635;23;20265;-81
2021/01/04 11:22:27;;;;;;;3.92;3.53;;;3.40;98.30;;;;;;5116618;23;20234;-82
2021/01/04 11:24:31;;;;;;;4.13;3.72;;;3.40;98.30;;;;;;5116433;23;20280;-83
2021/01/04 11:26:33;;;;;;;4.35;3.40;;;3.40;98.30;;;;;;5116440;23;20241;-83
2021/01/04 11:28:39;;;;;;;6.85;5.18;;;3.40;98.30;;;;;;5116098;23;20538;-83
2021/01/04 11:30:42;;;;;;;4.47;3.63;;;3.40;98.30;;;;;;5115532;23;20211;-82
2021/01/04 11:32:44;;;;;;;4.45;3.78;;;3.40;98.30;;;;;;5115898;23;20671;-83
2021/01/04 11:34:48;;;;;;;4.55;3.58;;;3.40;98.30;;;;;;5115811;23;20273;-83
2021/01/04 11:36:50;;;;;;;6.63;3.50;;;3.50;98.30;;;;;;5116287;23;20218;-81
2021/01/04 11:38:53;;;;;;;4.65;3.60;;;3.40;98.30;;;;;;5123957;23;20277;-83
2021/01/04 11:40:55;;;;;;;12.90;7.55;;;3.40;98.30;;;;;;5115905;23;20212;-82
2021/01/04 11:42:58;;;;;;;16.90;10.23;;;3.50;98.30;;;;;;5123883;23;20203;-82
2021/01/04 11:45:00;;;;;;;6.80;3.80;;;3.40;98.30;;;;;;5115801;23;20507;-83
2021/01/04 11:47:08;;;;;;;3.95;3.17;;;3.30;98.30;;;;;;5123413;23;20206;-83
2021/01/04 11:49:10;;;;;;;3.63;3.25;;;3.40;98.30;;;;;;5115669;23;20681;-82
2021/01/04 11:51:20;;;;;;;6.05;3.20;;;3.30;98.30;;;;;;5116004;23;20741;-82
2021/01/04 11:53:22;;;;;;;3.60;3.30;;;3.30;98.30;;;;;;5115866;23;20260;-83
2021/01/04 11:55:25;;;;;;;3.50;3.20;;;3.30;98.30;;;;;;5116011;23;20264;-83
2021/01/04 11:57:28;;;;;;;3.45;3.15;;;3.30;98.30;;;;;;5115444;23;20293;-83
2021/01/04 11:59:33;;;;;;;3.90;3.50;;;3.30;98.30;;;;;;5123471;23;20674;-83
2021/01/04 12:01:35;;;;;;;4.40;3.30;;;3.30;98.30;;;;;;5115587;23;20527;-82
2021/01/04 12:03:37;;;;;;;3.30;3.00;;;3.30;98.30;;;;;;5124166;23;20202;-83
2021/01/04 12:05:39;;;;;;;3.40;3.10;;;3.30;98.30;;;;;;5123908;23;20195;-83
2021/01/04 12:07:43;;;;;;;3.45;2.78;;;3.30;98.30;;;;;;5115330;23;20533;-83
2021/01/04 12:09:46;;;;;;;4.13;3.38;;;3.30;98.30;;;;;;5123551;23;20285;-83
2021/01/04 12:11:49;;;;;;;4.18;3.17;;;3.30;98.30;;;;;;5123907;23;20234;-83
2021/01/04 12:13:51;;;;;;;6.45;2.97;;;3.30;98.30;;;;;;5123768;23;20218;-83
2021/01/04 12:15:53;;;;;;;9.07;5.97;;;3.40;98.30;;;;;;5115644;23;20776;-82
2021/01/04 12:17:55;;;;;;;9.40;5.65;;;3.40;98.30;;;;;;5115980;23;20245;-83
2021/01/04 12:20:04;;;;;;;4.30;3.90;;;3.30;98.30;;;;;;5115668;23;20215;-83
2021/01/04 12:22:07;;;;;;;3.20;2.90;;;3.40;98.30;;;;;;5115799;23;20286;-82
2021/01/04 12:24:15;;;;;;;4.65;3.53;;;3.30;98.30;;;;;;5124215;23;20202;-83
2021/01/04 12:26:22;;;;;;;6.63;3.20;;;3.40;98.30;;;;;;5124043;23;20199;-83
2021/01/04 12:28:28;;;;;;;3.97;3.30;;;3.40;98.30;;;;;;5123444;23;20218;-83
2021/01/04 12:30:32;;;;;;;4.15;3.53;;;3.40;98.30;;;;;;5123541;23;20204;-83
2021/01/04 12:32:36;;;;;;;3.72;3.30;;;3.30;98.30;;;;;;5124317;23;20594;-83
2021/01/04 12:34:39;;;;;;;5.80;3.35;;;3.40;98.30;;;;;;5124306;23;20301;-83
2021/01/04 12:36:43;;;;;;;9.10;4.47;;;3.40;98.30;;;;;;5124174;23;20199;-82
2021/01/04 12:38:49;;;;;;;4.22;3.67;;;3.30;98.30;;;;;;5115782;23;20206;-82
2021/01/04 12:40:52;;;;;;;5.50;3.50;;;3.30;98.30;;;;;;5124054;23;20241;-83
2021/01/04 12:42:57;;;;;;;4.70;3.50;;;3.30;98.30;;;;;;5124166;23;20236;-83
2021/01/04 12:45:01;;;;;;;8.88;4.78;;;3.30;98.30;;;;;;5115432;23;20202;-83
2021/01/04 12:47:03;;;;;;;4.78;4.28;;;3.40;98.30;;;;;;5114952;23;20219;-82
2021/01/04 12:49:05;;;;;;;5.00;4.50;;;3.30;98.30;;;;;;5123193;23;20237;-81
2021/01/04 17:13:01;;;;;;;4.63;4.07;;;3.00;98.30;;;;;;5150356;23;20201;-81
2021/01/04 17:15:21;;;;;;;6.07;4.25;;;2.90;98.30;;;;;;5148016;23;20209;-81
2021/01/04 17:17:46;;;;;;;5.30;3.92;;;2.90;98.30;;;;;;5147354;23;20197;-80
2021/01/04 17:19:58;;;;;;;5.63;4.45;;;3.00;98.30;;;;;;5140338;23;20205;-80
2021/01/04 17:22:11;;;;;;;8.73;6.15;;;3.00;98.30;;;;;;5148526;23;20809;-80
2021/01/04 17:24:29;;;;;;;5.13;4.35;;;3.00;98.30;;;;;;5139588;23;20204;-80
2021/01/04 17:26:45;;;;;;;5.57;4.35;;;2.90;98.30;;;;;;5139537;23;20787;-80
2021/01/04 17:29:28;;;;;;;6.82;4.70;;;2.90;98.30;;;;;;5140484;23;20202;-80
2021/01/04 17:31:35;;;;;;;5.28;4.22;;;2.90;98.30;;;;;;5151146;23;20624;-80
2021/01/04 17:33:40;;;;;;;6.63;4.57;;;2.90;98.30;;;;;;5143064;23;20205;-80
2021/01/04 17:35:42;;;;;;;6.35;4.60;;;2.90;98.30;;;;;;5151737;23;20209;-80
2021/01/04 17:37:46;;;;;;;7.68;4.45;;;2.90;98.30;;;;;;5142740;23;20206;-80
2021/01/04 17:39:48;;;;;;;5.90;5.00;;;2.90;98.30;;;;;;5152427;23;20213;-80
2021/01/04 17:41:56;;;;;;;7.30;4.90;;;3.00;98.30;;;;;;5152402;23;20228;-80
2021/01/04 17:44:04;;;;;;;5.22;4.53;;;3.00;98.30;;;;;;5151980;23;20208;-80
2021/01/04 17:46:11;;;;;;;4.82;4.25;;;3.00;98.30;;;;;;5151896;23;20208;-80
2021/01/04 17:48:14;;;;;;;6.60;4.63;;;2.90;98.30;;;;;;5151154;23;20559;-80
2021/01/04 17:50:17;;;;;;;4.88;4.25;;;2.90;98.30;;;;;;5149182;23;20252;-81
2021/01/04 17:52:19;;;;;;;4.72;3.67;;;2.90;98.30;;;;;;5149282;23;20198;-80
2021/01/04 17:54:27;;;;;;;5.20;4.40;;;2.90;98.30;;;;;;5149737;23;20268;-80
2021/01/04 17:56:34;;;;;;;4.82;4.10;;;3.00;98.30;;;;;;5150016;23;20197;-80
2021/01/04 17:58:42;;;;;;;5.00;4.30;;;3.00;98.30;;;;;;5149350;23;20206;-80
2021/01/04 18:01:00;;;;;;;6.82;5.18;;;3.00;98.30;;;;;;5151495;23;20202;-81
2021/01/04 18:03:08;;;;;;;7.53;5.07;;;3.00;98.30;;;;;;5140177;23;20216;-82
2021/01/04 18:05:16;;;;;;;8.18;5.00;;;2.90;98.30;;;;;;5151017;23;20208;-80
2021/01/04 18:07:25;;;;;;;7.60;5.07;;;2.90;98.30;;;;;;5151687;23;20201;-81
2021/01/04 18:09:28;;;;;;;7.70;4.40;;;2.90;98.30;;;;;;5151638;23;20235;-81
2021/01/04 18:11:39;;;;;;;5.20;4.18;;;2.90;98.30;;;;;;5151643;23;20206;-81
2021/01/04 18:14:05;;;;;;;8.20;4.70;;;2.90;98.30;;;;;;5150404;23;20202;-83
2021/01/04 18:16:25;;;;;;;5.85;5.00;;;2.90;98.30;;;;;;5140201;23;20216;-81
2021/01/04 18:21:02;;;;;;;4.70;4.30;;;2.90;98.30;;;;;;5106833;23;20204;-81
2021/01/04 18:23:18;;;;;;;;;;;;;;;;;;;;;
2021/01/04 18:25:26;;;;;;;5.07;4.28;;;2.90;98.30;;;;;;5140263;23;20201;-81
2021/01/04 18:27:37;;;;;;;4.78;4.20;;;2.80;98.30;;;;;;5151876;23;20730;-81
2021/01/04 18:29:47;;;;;;;4.90;4.40;;;2.80;98.30;;;;;;5150843;23;20209;-80
2021/01/04 18:32:11;;;;;;;6.47;4.50;;;2.90;98.30;;;;;;5151037;23;20248;-81
2021/01/04 18:34:44;;;;;;;7.22;4.35;;;2.90;98.30;;;;;;5143199;23;20285;-81
2021/01/04 18:36:54;;;;;;;4.78;4.03;;;2.90;98.30;;;;;;5152035;23;20264;-81
2021/01/04 18:38:58;;;;;;;6.20;4.93;;;2.90;98.30;;;;;;5152169;23;20246;-81
2021/01/04 18:41:08;;;;;;;6.32;5.25;;;2.90;98.30;;;;;;5151697;23;20256;-81
2021/01/04 18:43:13;;;;;;;4.63;4.07;;;2.90;98.30;;;;;;5151732;23;20565;-81
2021/01/04 18:45:22;;;;;;;5.40;4.43;;;2.90;98.30;;;;;;5151969;23;20209;-81
2021/01/04 18:47:27;;;;;;;4.70;4.00;;;2.90;98.30;;;;;;5153284;23;20691;-81
2021/01/04 18:49:29;;;;;;;5.90;4.40;;;2.90;98.30;;;;;;5152825;23;20201;-81
2021/01/04 18:51:35;;;;;;;4.97;4.47;;;2.80;98.30;;;;;;5153470;23;20252;-80
2021/01/04 18:53:38;;;;;;;4.72;3.95;;;2.80;98.30;;;;;;5152770;23;20206;-81
2021/01/04 18:55:41;;;;;;;4.82;4.32;;;2.80;98.30;;;;;;5151421;23;20673;-81
2021/01/04 18:57:44;;;;;;;6.13;4.70;;;2.80;98.30;;;;;;5152588;23;20193;-81
2021/01/04 18:59:54;;;;;;;29.20;16.02;;;2.90;98.30;;;;;;5152538;23;20204;-81
2021/01/04 19:01:59;;;;;;;32.17;18.00;;;2.80;98.30;;;;;;5143374;23;20206;-81
2021/01/04 19:04:06;;;;;;;13.40;8.40;;;2.80;98.30;;;;;;5151579;23;20202;-81
2021/01/04 19:06:08;;;;;;;6.05;4.80;;;2.90;98.30;;;;;;5151612;23;20508;-81
2021/01/04 19:08:17;;;;;;;4.60;4.20;;;2.90;98.30;;;;;;5151276;23;20214;-81
2021/01/04 19:10:20;;;;;;;5.70;4.22;;;2.90;98.30;;;;;;5143596;23;20269;-81
2021/01/04 19:12:24;;;;;;;5.85;5.13;;;2.90;98.30;;;;;;5151400;23;20285;-81
2021/01/04 19:14:30;;;;;;;4.80;4.30;;;2.90;98.30;;;;;;5151600;23;20206;-80
2021/01/04 19:16:34;;;;;;;4.68;3.92;;;2.90;98.30;;;;;;5153085;23;20202;-81
2021/01/04 19:18:37;;;;;;;4.88;4.20;;;2.90;98.30;;;;;;5151527;23;20427;-81
2021/01/04 19:20:39;;;;;;;4.95;4.47;;;2.90;98.30;;;;;;5150982;23;20201;-81
2021/01/04 19:22:42;;;;;;;4.82;3.80;;;2.90;98.30;;;;;;5151947;23;20209;-80
2021/01/04 19:24:47;;;;;;;4.70;4.10;;;2.90;98.30;;;;;;5151800;23;20201;-80
2021/01/04 19:27:06;;;;;;;5.97;4.03;;;2.90;98.30;;;;;;5152117;23;20683;-80
2021/01/04 19:29:18;;;;;;;4.45;4.05;;;2.90;98.30;;;;;;5152635;23;20860;-81
2021/01/04 19:31:47;;;;;;;23.08;14.13;;;2.90;98.30;;;;;;5152205;23;20208;-80
2021/01/04 19:33:52;;;;;;;6.07;4.72;;;2.90;98.30;;;;;;5152278;23;20205;-80
2021/01/04 19:36:01;;;;;;;5.53;4.90;;;2.80;98.30;;;;;;5153072;23;20641;-81
2021/01/04 19:38:06;;;;;;;5.40;4.40;;;2.80;98.30;;;;;;5152365;23;20203;-81
2021/01/04 19:40:12;;;;;;;4.90;4.40;;;2.80;98.30;;;;;;5153646;23;20695;-81
2021/01/04 19:42:22;;;;;;;5.55;4.40;;;2.80;98.30;;;;;;5153829;23;20950;-80
2021/01/04 19:44:29;;;;;;;4.47;3.70;;;2.80;98.30;;;;;;5143304;23;20685;-80
2021/01/04 19:46:31;;;;;;;5.43;4.00;;;2.80;98.30;;;;;;5140472;23;20198;-77
2021/01/04 19:48:33;;;;;;;5.50;4.20;;;2.90;98.30;;;;;;5139379;23;20683;-77
2021/01/04 19:50:36;;;;;;;5.82;4.15;;;2.90;98.30;;;;;;5139465;23;20237;-77
2021/01/04 19:52:38;;;;;;;4.93;4.32;;;3.00;98.30;;;;;;5138823;23;20289;-77
2021/01/04 19:54:40;;;;;;;6.35;4.53;;;3.10;98.30;;;;;;5139903;23;20521;-76
2021/01/04 19:56:48;;;;;;;5.15;4.15;;;3.10;98.30;;;;;;5140392;23;20202;-77
2021/01/04 19:58:50;;;;;;;4.90;4.35;;;3.10;98.30;;;;;;5146692;23;20211;-76
2021/01/04 20:01:08;;;;;;;4.78;4.30;;;3.20;98.30;;;;;;5139909;23;20208;-84
2021/01/04 20:03:21;;;;;;;8.23;4.43;;;3.20;98.30;;;;;;5140234;23;20739;-83
2021/01/04 20:06:03;;;;;;;4.90;4.40;;;3.00;98.30;;;;;;5151778;23;20194;-82
2021/01/04 20:08:10;;;;;;;6.70;4.50;;;3.00;98.30;;;;;;5147681;23;20285;-84
2021/01/04 20:10:15;;;;;;;5.00;4.43;;;2.90;98.30;;;;;;5142106;23;20205;-83
2021/01/04 20:12:17;;;;;;;4.00;3.40;;;2.80;98.30;;;;;;5148952;23;20261;-83
2021/01/04 20:14:21;;;;;;;5.97;4.50;;;2.90;98.30;;;;;;5148121;23;20201;-83
2021/01/04 20:16:26;;;;;;;5.60;4.28;;;2.90;98.30;;;;;;5141290;23;20209;-83
2021/01/04 20:18:30;;;;;;;5.75;4.10;;;2.80;98.30;;;;;;5150696;23;20205;-83
2021/01/04 20:20:33;;;;;;;5.45;4.20;;;2.80;98.30;;;;;;5143161;23;20206;-83
2021/01/04 20:22:39;;;;;;;4.40;4.00;;;2.70;98.30;;;;;;5141916;23;20202;-83
2021/01/04 20:24:42;;;;;;;3.92;3.45;;;2.80;98.30;;;;;;5149203;23;20251;-83
2021/01/04 20:26:46;;;;;;;4.57;4.05;;;2.80;98.30;;;;;;5151112;23;20715;-82
2021/01/04 20:28:49;;;;;;;4.07;3.67;;;2.80;98.30;;;;;;5158678;23;20206;-83
2021/01/04 20:31:01;;;;;;;4.28;3.80;;;2.80;98.30;;;;;;5155872;23;20224;-83
2021/01/04 20:33:06;;;;;;;4.85;3.65;;;2.80;98.30;;;;;;5160939;23;20202;-82
2021/01/04 20:35:10;;;;;;;4.60;4.10;;;2.80;98.30;;;;;;5154408;23;20271;-81
2021/01/04 20:37:16;;;;;;;4.25;3.85;;;2.80;98.30;;;;;;5156655;23;20201;-83
2021/01/04 20:39:20;;;;;;;3.70;3.40;;;2.80;98.30;;;;;;5159746;23;20224;-83
2021/01/04 20:41:22;;;;;;;3.58;3.28;;;2.80;98.30;;;;;;5152664;23;20209;-83
2021/01/04 20:43:25;;;;;;;3.60;3.30;;;2.80;98.30;;;;;;5160179;23;20205;-82
2021/01/04 20:45:27;;;;;;;4.75;3.60;;;2.80;98.30;;;;;;5158673;23;20228;-82
2021/01/04 20:47:30;;;;;;;5.30;4.20;;;2.80;98.30;;;;;;5155590;23;20201;-84
2021/01/04 20:49:32;;;;;;;4.88;4.25;;;2.80;98.30;;;;;;5152531;23;20845;-83
2021/01/04 20:51:47;;;;;;;4.30;3.90;;;2.80;98.30;;;;;;5152053;23;20205;-83
2021/01/04 20:53:49;;;;;;;4.60;4.20;;;2.90;98.30;;;;;;5149414;23;20289;-82
2021/01/04 20:55:55;;;;;;;4.75;3.53;;;2.80;98.30;;;;;;5149295;23;20202;-82
2021/01/04 20:57:59;;;;;;;3.40;3.10;;;2.80;98.30;;;;;;5142464;23;20323;-82
2021/01/04 21:00:03;;;;;;;5.38;4.00;;;2.90;98.30;;;;;;5142055;23;20640;-81
2021/01/04 21:02:06;;;;;;;5.00;4.10;;;2.90;98.30;;;;;;5155603;23;20205;-82
2021/01/04 21:04:18;;;;;;;5.20;4.03;;;2.90;98.30;;;;;;5160747;23;20198;-82
2021/01/04 21:06:20;;;;;;;5.22;4.25;;;2.90;98.30;;;;;;5160758;23;20285;-82
2021/01/04 21:08:23;;;;;;;8.20;4.20;;;3.00;98.30;;;;;;5159540;23;20264;-82
2021/01/04 21:10:28;;;;;;;4.40;4.00;;;3.00;98.30;;;;;;5161556;23;20229;-82
2021/01/04 21:12:33;;;;;;;5.00;4.28;;;3.00;98.30;;;;;;5161034;23;20208;-82
2021/01/04 21:14:36;;;;;;;5.90;4.55;;;3.00;98.30;;;;;;5155458;23;20205;-82
2021/01/04 21:16:38;;;;;;;4.30;3.90;;;3.00;98.30;;;;;;5153342;23;20268;-83
2021/01/04 21:18:40;;;;;;;6.15;4.30;;;3.00;98.30;;;;;;5152443;23;20209;-82
2021/01/04 21:20:43;;;;;;;5.47;3.90;;;3.00;98.30;;;;;;5151564;23;20905;-83
2021/01/04 21:22:45;;;;;;;5.40;4.40;;;3.00;98.30;;;;;;5151444;23;20206;-83
2021/01/04 21:24:49;;;;;;;5.65;4.60;;;3.00;98.30;;;;;;5151574;23;20197;-83
2021/01/04 21:26:51;;;;;;;7.35;4.97;;;3.00;98.30;;;;;;5150362;23;20265;-83
2021/01/04 21:28:55;;;;;;;13.90;8.52;;;3.00;98.30;;;;;;5151188;23;20225;-82
2021/01/04 21:30:57;;;;;;;27.45;15.52;;;3.00;98.30;;;;;;5150970;23;20256;-82
2021/01/04 21:32:59;;;;;;;10.57;6.32;;;3.10;98.30;;;;;;5152025;23;20217;-83
2021/01/04 21:35:02;;;;;;;6.93;5.43;;;3.10;98.30;;;;;;5149569;23;20198;-83
2021/01/04 21:37:05;;;;;;;5.07;4.28;;;3.10;98.30;;;;;;5150716;23;20201;-83
2021/01/04 21:39:10;;;;;;;4.50;3.70;;;3.00;98.30;;;;;;5150261;23;20696;-82
2021/01/04 21:41:13;;;;;;;6.35;3.75;;;3.00;98.30;;;;;;5150459;23;20201;-83
2021/01/04 21:43:15;;;;;;;4.47;3.60;;;3.10;98.30;;;;;;5150074;23;20198;-82
2021/01/04 21:45:18;;;;;;;4.55;3.92;;;3.00;98.30;;;;;;5149848;23;20197;-83
2021/01/04 21:47:20;;;;;;;5.45;4.68;;;3.10;98.30;;;;;;5150490;23;20205;-82
2021/01/04 21:49:22;;;;;;;6.45;4.00;;;3.10;98.30;;;;;;5141713;23;20255;-83
2021/01/04 21:51:32;;;;;;;4.65;3.90;;;3.10;98.30;;;;;;5150476;23;20201;-82
2021/01/04 21:53:34;;;;;;;5.10;4.20;;;3.10;98.30;;;;;;5150314;23;20225;-83